sensor_id;sensor_type;location;lat;lon;timestamp;temperature;humidity
21271;DHT22;10795;50.796;3.860;2023-12-29T00:00:46;10.30;99.90
21271;DHT22;10795;50.796;3.860;2023-12-29T00:03:14;10.30;99.90
21271;DHT22;10795;50.796;3.860;2023-12-29T00:05:40;10.40;99.90
21271;DHT22;10795;50.796;3.860;2023-12-29T00:08:08;10.40;99.90
21271;DHT22;10795;50.796;3.860;2023-12-29T00:10:34;10.30;99.90
21271;DHT22;10795;50.796;3.860;2023-12-29T00:13:00;10.20;99.90
21271;DHT22;10795;50.796;3.860;2023-12-29T00:15:25;10.20;99.90
21271;DHT22;10795;50.796;3.860;2023-12-29T00:17:51;10.20;99.90
21271;DHT22;10795;50.796;3.860;2023-12-29T00:20:18;10.30;99.90
21271;DHT22;10795;50.796;3.860;2023-12-29T00:22:46;10.40;99.90
21271;DHT22;10795;50.796;3.860;2023-12-29T00:25:12;10.30;99.90
21271;DHT22;10795;50.796;3.860;2023-12-29T00:27:37;10.30;99.90
21271;DHT22;10795;50.796;3.860;2023-12-29T00:30:03;10.30;99.90
21271;DHT22;10795;50.796;3.860;2023-12-29T00:32:29;10.30;99.90
21271;DHT22;10795;50.796;3.860;2023-12-29T00:34:56;10.30;99.90
21271;DHT22;10795;50.796;3.860;2023-12-29T00:37:22;10.30;99.90
21271;DHT22;10795;50.796;3.860;2023-12-29T00:39:48;10.30;99.90
21271;DHT22;10795;50.796;3.860;2023-12-29T00:42:16;10.30;99.90
21271;DHT22;10795;50.796;3.860;2023-12-29T00:44:44;10.30;99.90
21271;DHT22;10795;50.796;3.860;2023-12-29T00:47:12;10.40;99.90
21271;DHT22;10795;50.796;3.860;2023-12-29T00:49:39;10.40;99.90
21271;DHT22;10795;50.796;3.860;2023-12-29T00:52:06;10.30;99.90
21271;DHT22;10795;50.796;3.860;2023-12-29T00:54:31;10.30;99.90
21271;DHT22;10795;50.796;3.860;2023-12-29T00:56:57;10.20;99.90
21271;DHT22;10795;50.796;3.860;2023-12-29T00:59:23;10.20;99.90
21271;DHT22;10795;50.796;3.860;2023-12-29T01:01:48;10.20;99.90
21271;DHT22;10795;50.796;3.860;2023-12-29T01:04:14;10.20;99.90
21271;DHT22;10795;50.796;3.860;2023-12-29T01:06:40;10.30;99.90
21271;DHT22;10795;50.796;3.860;2023-12-29T01:09:08;10.30;99.90
21271;DHT22;10795;50.796;3.860;2023-12-29T01:11:35;10.20;99.90
21271;DHT22;10795;50.796;3.860;2023-12-29T01:14:01;10.20;99.90
21271;DHT22;10795;50.796;3.860;2023-12-29T01:16:27;10.20;99.90
21271;DHT22;10795;50.796;3.860;2023-12-29T01:18:53;10.30;99.90
21271;DHT22;10795;50.796;3.860;2023-12-29T01:21:19;10.30;99.90
21271;DHT22;10795;50.796;3.860;2023-12-29T01:23:47;10.30;99.90
21271;DHT22;10795;50.796;3.860;2023-12-29T01:26:12;10.30;99.90
21271;DHT22;10795;50.796;3.860;2023-12-29T01:28:40;10.30;99.90
21271;DHT22;10795;50.796;3.860;2023-12-29T01:31:08;10.30;99.90
21271;DHT22;10795;50.796;3.860;2023-12-29T01:33:36;10.30;99.90
21271;DHT22;10795;50.796;3.860;2023-12-29T01:36:02;10.20;99.90
21271;DHT22;10795;50.796;3.860;2023-12-29T01:38:28;10.30;99.90
21271;DHT22;10795;50.796;3.860;2023-12-29T01:40:56;10.30;99.90
21271;DHT22;10795;50.796;3.860;2023-12-29T01:43:22;10.20;99.90
21271;DHT22;10795;50.796;3.860;2023-12-29T01:45:48;10.30;99.90
21271;DHT22;10795;50.796;3.860;2023-12-29T01:48:14;10.20;99.90
21271;DHT22;10795;50.796;3.860;2023-12-29T01:50:40;10.30;99.90
21271;DHT22;10795;50.796;3.860;2023-12-29T01:53:06;10.20;99.90
21271;DHT22;10795;50.796;3.860;2023-12-29T01:55:33;10.20;99.90
21271;DHT22;10795;50.796;3.860;2023-12-29T01:57:59;10.20;99.90
21271;DHT22;10795;50.796;3.860;2023-12-29T02:00:25;10.20;99.90
21271;DHT22;10795;50.796;3.860;2023-12-29T02:02:52;10.30;99.90
21271;DHT22;10795;50.796;3.860;2023-12-29T02:05:20;10.30;99.90
21271;DHT22;10795;50.796;3.860;2023-12-29T02:07:51;10.20;99.90
21271;DHT22;10795;50.796;3.860;2023-12-29T02:10:17;10.30;99.90
21271;DHT22;10795;50.796;3.860;2023-12-29T02:12:46;10.30;99.90
21271;DHT22;10795;50.796;3.860;2023-12-29T02:15:13;10.30;99.90
21271;DHT22;10795;50.796;3.860;2023-12-29T02:18:02;10.20;99.90
21271;DHT22;10795;50.796;3.860;2023-12-29T02:20:29;10.20;99.90
21271;DHT22;10795;50.796;3.860;2023-12-29T02:22:55;10.20;99.90
21271;DHT22;10795;50.796;3.860;2023-12-29T02:25:21;10.20;99.90
21271;DHT22;10795;50.796;3.860;2023-12-29T02:32:54;10.10;99.90
21271;DHT22;10795;50.796;3.860;2023-12-29T02:35:26;10.10;99.90
21271;DHT22;10795;50.796;3.860;2023-12-29T02:37:54;10.20;99.90
21271;DHT22;10795;50.796;3.860;2023-12-29T02:40:20;10.10;99.90
21271;DHT22;10795;50.796;3.860;2023-12-29T02:42:47;10.10;99.90
21271;DHT22;10795;50.796;3.860;2023-12-29T02:45:17;10.10;99.90
21271;DHT22;10795;50.796;3.860;2023-12-29T02:47:43;10.00;99.90
21271;DHT22;10795;50.796;3.860;2023-12-29T02:50:09;10.00;99.90
21271;DHT22;10795;50.796;3.860;2023-12-29T02:52:36;9.90;99.90
21271;DHT22;10795;50.796;3.860;2023-12-29T02:55:03;10.00;99.90
21271;DHT22;10795;50.796;3.860;2023-12-29T02:57:29;10.10;99.90
21271;DHT22;10795;50.796;3.860;2023-12-29T02:59:56;10.10;99.90
21271;DHT22;10795;50.796;3.860;2023-12-29T03:02:22;10.00;99.90
21271;DHT22;10795;50.796;3.860;2023-12-29T03:04:48;10.00;99.90
21271;DHT22;10795;50.796;3.860;2023-12-29T03:07:15;10.00;99.90
21271;DHT22;10795;50.796;3.860;2023-12-29T03:09:42;9.90;99.90
21271;DHT22;10795;50.796;3.860;2023-12-29T03:12:10;9.90;99.90
21271;DHT22;10795;50.796;3.860;2023-12-29T03:14:36;9.90;99.90
21271;DHT22;10795;50.796;3.860;2023-12-29T03:17:01;10.00;99.90
21271;DHT22;10795;50.796;3.860;2023-12-29T03:19:27;9.90;99.90
21271;DHT22;10795;50.796;3.860;2023-12-29T03:21:53;10.00;99.90
21271;DHT22;10795;50.796;3.860;2023-12-29T03:24:20;9.90;99.90
21271;DHT22;10795;50.796;3.860;2023-12-29T03:26:48;9.90;99.90
21271;DHT22;10795;50.796;3.860;2023-12-29T03:29:13;9.90;99.90
21271;DHT22;10795;50.796;3.860;2023-12-29T03:31:39;9.90;99.90
21271;DHT22;10795;50.796;3.860;2023-12-29T03:34:05;10.00;99.90
21271;DHT22;10795;50.796;3.860;2023-12-29T03:36:32;9.90;99.90
21271;DHT22;10795;50.796;3.860;2023-12-29T03:39:01;9.90;99.90
21271;DHT22;10795;50.796;3.860;2023-12-29T03:41:28;9.90;99.90
21271;DHT22;10795;50.796;3.860;2023-12-29T03:43:56;10.00;99.90
21271;DHT22;10795;50.796;3.860;2023-12-29T03:46:22;9.90;99.90
21271;DHT22;10795;50.796;3.860;2023-12-29T03:48:49;9.90;99.90
21271;DHT22;10795;50.796;3.860;2023-12-29T03:51:15;9.90;99.90
21271;DHT22;10795;50.796;3.860;2023-12-29T03:53:45;9.80;99.90
21271;DHT22;10795;50.796;3.860;2023-12-29T03:56:18;9.90;99.90
21271;DHT22;10795;50.796;3.860;2023-12-29T03:58:44;9.90;99.90
21271;DHT22;10795;50.796;3.860;2023-12-29T04:01:14;9.80;99.90
21271;DHT22;10795;50.796;3.860;2023-12-29T04:03:41;9.80;99.90
21271;DHT22;10795;50.796;3.860;2023-12-29T04:06:07;9.80;99.90
21271;DHT22;10795;50.796;3.860;2023-12-29T04:08:34;9.80;99.90
21271;DHT22;10795;50.796;3.860;2023-12-29T04:11:00;9.80;99.90
21271;DHT22;10795;50.796;3.860;2023-12-29T04:13:31;9.80;99.90
21271;DHT22;10795;50.796;3.860;2023-12-29T04:15:57;9.90;99.90
21271;DHT22;10795;50.796;3.860;2023-12-29T04:18:23;9.90;99.90
21271;DHT22;10795;50.796;3.860;2023-12-29T04:20:52;9.90;99.90
21271;DHT22;10795;50.796;3.860;2023-12-29T04:23:17;9.80;99.90
21271;DHT22;10795;50.796;3.860;2023-12-29T04:25:46;9.80;99.90
21271;DHT22;10795;50.796;3.860;2023-12-29T04:28:12;9.90;99.90
21271;DHT22;10795;50.796;3.860;2023-12-29T04:30:37;9.90;99.90
21271;DHT22;10795;50.796;3.860;2023-12-29T04:33:04;9.90;99.90
21271;DHT22;10795;50.796;3.860;2023-12-29T04:35:30;9.90;99.90
21271;DHT22;10795;50.796;3.860;2023-12-29T04:37:58;9.80;99.90
21271;DHT22;10795;50.796;3.860;2023-12-29T04:40:24;9.80;99.90
21271;DHT22;10795;50.796;3.860;2023-12-29T04:42:50;9.80;99.90
21271;DHT22;10795;50.796;3.860;2023-12-29T04:45:16;9.80;99.90
21271;DHT22;10795;50.796;3.860;2023-12-29T04:47:41;9.80;99.90
21271;DHT22;10795;50.796;3.860;2023-12-29T04:50:08;9.80;99.90
21271;DHT22;10795;50.796;3.860;2023-12-29T04:52:34;9.90;99.90
21271;DHT22;10795;50.796;3.860;2023-12-29T04:55:02;9.90;99.90
21271;DHT22;10795;50.796;3.860;2023-12-29T04:57:28;9.90;99.90
21271;DHT22;10795;50.796;3.860;2023-12-29T04:59:54;9.90;99.90
21271;DHT22;10795;50.796;3.860;2023-12-29T05:02:20;9.90;99.90
21271;DHT22;10795;50.796;3.860;2023-12-29T05:04:46;9.90;99.90
21271;DHT22;10795;50.796;3.860;2023-12-29T05:07:12;10.00;99.90
21271;DHT22;10795;50.796;3.860;2023-12-29T05:09:37;10.10;99.90
21271;DHT22;10795;50.796;3.860;2023-12-29T05:12:04;10.10;99.90
21271;DHT22;10795;50.796;3.860;2023-12-29T05:14:29;10.10;99.90
21271;DHT22;10795;50.796;3.860;2023-12-29T05:16:55;10.10;99.90
21271;DHT22;10795;50.796;3.860;2023-12-29T05:19:21;10.10;99.90
21271;DHT22;10795;50.796;3.860;2023-12-29T05:21:47;10.10;99.90
21271;DHT22;10795;50.796;3.860;2023-12-29T05:24:17;10.10;99.90
21271;DHT22;10795;50.796;3.860;2023-12-29T05:26:43;10.00;99.90
21271;DHT22;10795;50.796;3.860;2023-12-29T05:29:09;10.00;99.90
21271;DHT22;10795;50.796;3.860;2023-12-29T05:31:34;9.90;99.90
21271;DHT22;10795;50.796;3.860;2023-12-29T05:34:00;9.90;99.90
21271;DHT22;10795;50.796;3.860;2023-12-29T05:36:26;10.00;99.90
21271;DHT22;10795;50.796;3.860;2023-12-29T05:38:52;10.00;99.90
21271;DHT22;10795;50.796;3.860;2023-12-29T05:41:18;9.90;99.90
21271;DHT22;10795;50.796;3.860;2023-12-29T05:43:44;9.90;99.90
21271;DHT22;10795;50.796;3.860;2023-12-29T05:46:11;9.90;99.90
21271;DHT22;10795;50.796;3.860;2023-12-29T05:48:37;9.80;99.90
21271;DHT22;10795;50.796;3.860;2023-12-29T05:51:10;9.70;99.90
21271;DHT22;10795;50.796;3.860;2023-12-29T05:53:37;9.70;99.90
21271;DHT22;10795;50.796;3.860;2023-12-29T05:56:04;9.70;99.90
21271;DHT22;10795;50.796;3.860;2023-12-29T05:58:30;9.60;99.90
21271;DHT22;10795;50.796;3.860;2023-12-29T06:00:56;9.60;99.90
21271;DHT22;10795;50.796;3.860;2023-12-29T06:03:22;9.60;99.90
21271;DHT22;10795;50.796;3.860;2023-12-29T06:05:48;9.60;99.90
21271;DHT22;10795;50.796;3.860;2023-12-29T06:08:14;9.60;99.90
21271;DHT22;10795;50.796;3.860;2023-12-29T06:10:40;9.50;99.90
21271;DHT22;10795;50.796;3.860;2023-12-29T06:13:06;9.50;99.90
21271;DHT22;10795;50.796;3.860;2023-12-29T06:15:32;9.50;99.90
21271;DHT22;10795;50.796;3.860;2023-12-29T06:17:58;9.50;99.90
21271;DHT22;10795;50.796;3.860;2023-12-29T06:20:24;9.50;99.90
21271;DHT22;10795;50.796;3.860;2023-12-29T06:22:50;9.50;99.90
21271;DHT22;10795;50.796;3.860;2023-12-29T06:25:15;9.50;99.90
21271;DHT22;10795;50.796;3.860;2023-12-29T06:27:41;9.50;99.90
21271;DHT22;10795;50.796;3.860;2023-12-29T06:30:08;9.40;99.90
21271;DHT22;10795;50.796;3.860;2023-12-29T06:32:37;9.50;99.90
21271;DHT22;10795;50.796;3.860;2023-12-29T06:35:04;9.40;99.90
21271;DHT22;10795;50.796;3.860;2023-12-29T06:37:32;9.50;99.90
21271;DHT22;10795;50.796;3.860;2023-12-29T06:39:58;9.50;99.90
21271;DHT22;10795;50.796;3.860;2023-12-29T06:42:24;9.50;99.90
21271;DHT22;10795;50.796;3.860;2023-12-29T06:44:52;9.50;99.90
21271;DHT22;10795;50.796;3.860;2023-12-29T06:47:18;9.40;99.90
21271;DHT22;10795;50.796;3.860;2023-12-29T06:49:44;9.40;99.90
21271;DHT22;10795;50.796;3.860;2023-12-29T06:52:10;9.50;99.90
21271;DHT22;10795;50.796;3.860;2023-12-29T06:54:36;9.50;99.90
21271;DHT22;10795;50.796;3.860;2023-12-29T06:57:02;9.50;99.90
21271;DHT22;10795;50.796;3.860;2023-12-29T06:59:28;9.50;99.90
21271;DHT22;10795;50.796;3.860;2023-12-29T07:01:54;9.50;99.90
21271;DHT22;10795;50.796;3.860;2023-12-29T07:04:22;9.50;99.90
21271;DHT22;10795;50.796;3.860;2023-12-29T07:06:54;9.50;99.90
21271;DHT22;10795;50.796;3.860;2023-12-29T07:09:22;9.50;99.90
21271;DHT22;10795;50.796;3.860;2023-12-29T07:11:51;9.50;99.90
21271;DHT22;10795;50.796;3.860;2023-12-29T07:14:29;9.50;99.90
21271;DHT22;10795;50.796;3.860;2023-12-29T07:17:09;9.50;99.90
21271;DHT22;10795;50.796;3.860;2023-12-29T07:19:43;9.50;99.90
21271;DHT22;10795;50.796;3.860;2023-12-29T07:22:09;9.50;99.90
21271;DHT22;10795;50.796;3.860;2023-12-29T07:24:53;9.60;99.90
21271;DHT22;10795;50.796;3.860;2023-12-29T07:27:21;9.60;99.90
21271;DHT22;10795;50.796;3.860;2023-12-29T07:29:52;9.60;99.90
21271;DHT22;10795;50.796;3.860;2023-12-29T07:32:28;9.60;99.90
21271;DHT22;10795;50.796;3.860;2023-12-29T07:35:09;9.50;99.90
21271;DHT22;10795;50.796;3.860;2023-12-29T07:37:45;9.60;99.90
21271;DHT22;10795;50.796;3.860;2023-12-29T07:40:20;9.60;99.90
21271;DHT22;10795;50.796;3.860;2023-12-29T07:42:46;9.50;99.90
21271;DHT22;10795;50.796;3.860;2023-12-29T07:45:23;9.50;99.90
21271;DHT22;10795;50.796;3.860;2023-12-29T07:48:09;9.50;99.90
21271;DHT22;10795;50.796;3.860;2023-12-29T07:50:40;9.50;99.90
21271;DHT22;10795;50.796;3.860;2023-12-29T07:53:20;9.60;99.90
21271;DHT22;10795;50.796;3.860;2023-12-29T07:55:46;9.60;99.90
21271;DHT22;10795;50.796;3.860;2023-12-29T07:58:15;9.60;99.90
21271;DHT22;10795;50.796;3.860;2023-12-29T08:00:52;9.60;99.90
21271;DHT22;10795;50.796;3.860;2023-12-29T08:03:23;9.60;99.90
21271;DHT22;10795;50.796;3.860;2023-12-29T08:06:06;9.70;99.90
21271;DHT22;10795;50.796;3.860;2023-12-29T08:08:58;9.70;99.90
21271;DHT22;10795;50.796;3.860;2023-12-29T08:11:50;9.70;99.90
21271;DHT22;10795;50.796;3.860;2023-12-29T08:14:22;9.80;99.90
21271;DHT22;10795;50.796;3.860;2023-12-29T08:16:50;9.80;99.90
21271;DHT22;10795;50.796;3.860;2023-12-29T08:19:16;9.90;99.90
21271;DHT22;10795;50.796;3.860;2023-12-29T08:21:42;9.90;99.90
21271;DHT22;10795;50.796;3.860;2023-12-29T08:24:20;9.80;99.90
21271;DHT22;10795;50.796;3.860;2023-12-29T08:26:53;9.80;99.90
21271;DHT22;10795;50.796;3.860;2023-12-29T08:29:30;9.90;99.90
21271;DHT22;10795;50.796;3.860;2023-12-29T08:32:03;9.90;99.90
21271;DHT22;10795;50.796;3.860;2023-12-29T08:34:29;10.00;99.90
21271;DHT22;10795;50.796;3.860;2023-12-29T08:36:55;10.00;99.90
21271;DHT22;10795;50.796;3.860;2023-12-29T08:39:22;10.00;99.90
21271;DHT22;10795;50.796;3.860;2023-12-29T08:41:48;10.00;99.90
21271;DHT22;10795;50.796;3.860;2023-12-29T08:44:15;10.00;99.90
21271;DHT22;10795;50.796;3.860;2023-12-29T08:46:41;10.00;99.90
21271;DHT22;10795;50.796;3.860;2023-12-29T08:49:07;9.90;99.90
21271;DHT22;10795;50.796;3.860;2023-12-29T08:51:33;10.00;99.90
21271;DHT22;10795;50.796;3.860;2023-12-29T08:53:59;10.00;99.90
21271;DHT22;10795;50.796;3.860;2023-12-29T08:56:25;10.00;99.90
21271;DHT22;10795;50.796;3.860;2023-12-29T08:58:51;10.00;99.90
21271;DHT22;10795;50.796;3.860;2023-12-29T09:01:18;10.00;99.90
21271;DHT22;10795;50.796;3.860;2023-12-29T09:03:44;10.10;99.90
21271;DHT22;10795;50.796;3.860;2023-12-29T09:06:13;10.10;99.90
21271;DHT22;10795;50.796;3.860;2023-12-29T09:08:39;10.10;99.90
21271;DHT22;10795;50.796;3.860;2023-12-29T09:11:08;10.10;99.90
21271;DHT22;10795;50.796;3.860;2023-12-29T09:13:33;10.20;99.90
21271;DHT22;10795;50.796;3.860;2023-12-29T09:16:01;10.30;99.90
21271;DHT22;10795;50.796;3.860;2023-12-29T09:18:35;10.20;99.90
21271;DHT22;10795;50.796;3.860;2023-12-29T09:21:03;10.20;99.90
21271;DHT22;10795;50.796;3.860;2023-12-29T09:23:29;10.20;99.90
21271;DHT22;10795;50.796;3.860;2023-12-29T09:25:57;10.20;99.90
21271;DHT22;10795;50.796;3.860;2023-12-29T09:28:23;10.20;99.90
21271;DHT22;10795;50.796;3.860;2023-12-29T09:30:51;10.20;99.90
21271;DHT22;10795;50.796;3.860;2023-12-29T09:33:17;10.20;99.90
21271;DHT22;10795;50.796;3.860;2023-12-29T09:35:43;10.10;99.90
21271;DHT22;10795;50.796;3.860;2023-12-29T09:38:09;10.10;99.90
21271;DHT22;10795;50.796;3.860;2023-12-29T09:40:35;10.10;99.90
21271;DHT22;10795;50.796;3.860;2023-12-29T09:43:03;10.20;99.90
21271;DHT22;10795;50.796;3.860;2023-12-29T09:45:30;10.20;99.90
21271;DHT22;10795;50.796;3.860;2023-12-29T09:48:01;10.20;99.90
21271;DHT22;10795;50.796;3.860;2023-12-29T09:50:28;10.20;99.90
21271;DHT22;10795;50.796;3.860;2023-12-29T09:52:54;10.20;99.90
21271;DHT22;10795;50.796;3.860;2023-12-29T09:55:20;10.30;99.90
21271;DHT22;10795;50.796;3.860;2023-12-29T09:57:47;10.20;99.90
21271;DHT22;10795;50.796;3.860;2023-12-29T10:00:17;10.30;99.90
21271;DHT22;10795;50.796;3.860;2023-12-29T10:02:44;10.40;99.90
21271;DHT22;10795;50.796;3.860;2023-12-29T10:05:10;10.40;99.90
21271;DHT22;10795;50.796;3.860;2023-12-29T10:07:36;10.40;99.90
21271;DHT22;10795;50.796;3.860;2023-12-29T10:10:07;10.40;99.90
21271;DHT22;10795;50.796;3.860;2023-12-29T10:12:38;10.50;99.90
21271;DHT22;10795;50.796;3.860;2023-12-29T10:20:32;10.50;99.90
21271;DHT22;10795;50.796;3.860;2023-12-29T10:23:11;10.40;99.90
21271;DHT22;10795;50.796;3.860;2023-12-29T10:25:42;10.40;99.90
21271;DHT22;10795;50.796;3.860;2023-12-29T10:28:09;10.40;99.90
21271;DHT22;10795;50.796;3.860;2023-12-29T10:30:40;10.40;99.90
21271;DHT22;10795;50.796;3.860;2023-12-29T10:33:06;10.40;99.90
21271;DHT22;10795;50.796;3.860;2023-12-29T10:35:32;10.40;99.90
21271;DHT22;10795;50.796;3.860;2023-12-29T10:38:08;10.40;99.90
21271;DHT22;10795;50.796;3.860;2023-12-29T10:44:07;10.40;99.90
21271;DHT22;10795;50.796;3.860;2023-12-29T10:46:33;10.40;99.90
21271;DHT22;10795;50.796;3.860;2023-12-29T10:49:11;10.40;99.90
21271;DHT22;10795;50.796;3.860;2023-12-29T10:51:39;10.50;99.90
21271;DHT22;10795;50.796;3.860;2023-12-29T10:54:07;10.50;99.90
21271;DHT22;10795;50.796;3.860;2023-12-29T10:56:45;10.60;99.90
21271;DHT22;10795;50.796;3.860;2023-12-29T10:59:12;10.60;99.90
21271;DHT22;10795;50.796;3.860;2023-12-29T11:01:39;10.60;99.90
21271;DHT22;10795;50.796;3.860;2023-12-29T11:04:05;10.60;99.90
21271;DHT22;10795;50.796;3.860;2023-12-29T11:06:45;10.70;99.90
21271;DHT22;10795;50.796;3.860;2023-12-29T11:09:13;10.70;99.90
21271;DHT22;10795;50.796;3.860;2023-12-29T11:11:39;10.70;99.90
21271;DHT22;10795;50.796;3.860;2023-12-29T11:14:05;10.80;99.90
21271;DHT22;10795;50.796;3.860;2023-12-29T11:16:31;10.70;99.90
21271;DHT22;10795;50.796;3.860;2023-12-29T11:19:00;10.70;99.90
21271;DHT22;10795;50.796;3.860;2023-12-29T11:21:30;10.70;99.90
21271;DHT22;10795;50.796;3.860;2023-12-29T11:23:57;10.70;99.90
21271;DHT22;10795;50.796;3.860;2023-12-29T11:26:24;10.70;99.90
21271;DHT22;10795;50.796;3.860;2023-12-29T11:28:52;10.70;99.90
21271;DHT22;10795;50.796;3.860;2023-12-29T11:31:19;10.70;99.90
21271;DHT22;10795;50.796;3.860;2023-12-29T11:33:57;10.60;99.90
21271;DHT22;10795;50.796;3.860;2023-12-29T11:36:32;10.60;99.90
21271;DHT22;10795;50.796;3.860;2023-12-29T11:39:27;10.60;99.90
21271;DHT22;10795;50.796;3.860;2023-12-29T11:42:14;10.60;99.90
21271;DHT22;10795;50.796;3.860;2023-12-29T11:44:43;10.60;99.90
21271;DHT22;10795;50.796;3.860;2023-12-29T11:47:46;10.60;99.90
21271;DHT22;10795;50.796;3.860;2023-12-29T11:50:27;10.50;99.90
21271;DHT22;10795;50.796;3.860;2023-12-29T11:52:53;10.50;99.90
21271;DHT22;10795;50.796;3.860;2023-12-29T11:55:20;10.40;99.90
21271;DHT22;10795;50.796;3.860;2023-12-29T11:57:46;10.30;99.90
21271;DHT22;10795;50.796;3.860;2023-12-29T12:00:12;10.30;99.90
21271;DHT22;10795;50.796;3.860;2023-12-29T12:02:41;10.30;99.90
21271;DHT22;10795;50.796;3.860;2023-12-29T12:05:09;10.30;99.90
21271;DHT22;10795;50.796;3.860;2023-12-29T12:12:54;10.40;99.90
21271;DHT22;10795;50.796;3.860;2023-12-29T12:17:57;10.30;99.90
21271;DHT22;10795;50.796;3.860;2023-12-29T12:20:23;10.30;99.90
21271;DHT22;10795;50.796;3.860;2023-12-29T12:23:00;10.30;99.90
21271;DHT22;10795;50.796;3.860;2023-12-29T12:25:27;10.30;99.90
21271;DHT22;10795;50.796;3.860;2023-12-29T12:27:57;10.20;99.90
21271;DHT22;10795;50.796;3.860;2023-12-29T12:30:23;10.20;99.90
21271;DHT22;10795;50.796;3.860;2023-12-29T12:32:59;10.20;99.90
21271;DHT22;10795;50.796;3.860;2023-12-29T12:35:27;10.20;99.90
21271;DHT22;10795;50.796;3.860;2023-12-29T12:40:35;10.40;99.90
21271;DHT22;10795;50.796;3.860;2023-12-29T12:43:01;10.40;99.90
21271;DHT22;10795;50.796;3.860;2023-12-29T12:45:42;10.50;99.90
21271;DHT22;10795;50.796;3.860;2023-12-29T12:50:48;10.50;99.90
21271;DHT22;10795;50.796;3.860;2023-12-29T12:53:14;10.60;99.90
21271;DHT22;10795;50.796;3.860;2023-12-29T12:55:50;10.70;99.90
21271;DHT22;10795;50.796;3.860;2023-12-29T12:58:17;10.70;99.90
21271;DHT22;10795;50.796;3.860;2023-12-29T13:00:43;10.70;99.90
21271;DHT22;10795;50.796;3.860;2023-12-29T13:03:09;10.80;99.90
21271;DHT22;10795;50.796;3.860;2023-12-29T13:05:36;10.80;99.90
21271;DHT22;10795;50.796;3.860;2023-12-29T13:08:05;10.80;99.90
21271;DHT22;10795;50.796;3.860;2023-12-29T13:10:34;10.80;99.90
21271;DHT22;10795;50.796;3.860;2023-12-29T13:13:05;10.80;99.90
21271;DHT22;10795;50.796;3.860;2023-12-29T13:15:31;10.80;99.90
21271;DHT22;10795;50.796;3.860;2023-12-29T13:17:57;10.80;99.90
21271;DHT22;10795;50.796;3.860;2023-12-29T13:20:25;10.70;99.90
21271;DHT22;10795;50.796;3.860;2023-12-29T13:22:51;10.70;99.90
21271;DHT22;10795;50.796;3.860;2023-12-29T13:25:28;10.70;99.90
21271;DHT22;10795;50.796;3.860;2023-12-29T13:27:54;10.60;99.90
21271;DHT22;10795;50.796;3.860;2023-12-29T13:30:21;10.50;99.90
21271;DHT22;10795;50.796;3.860;2023-12-29T13:32:48;10.60;99.90
21271;DHT22;10795;50.796;3.860;2023-12-29T13:35:26;10.50;99.90
21271;DHT22;10795;50.796;3.860;2023-12-29T13:38:16;10.60;99.90
21271;DHT22;10795;50.796;3.860;2023-12-29T13:40:59;10.50;99.90
21271;DHT22;10795;50.796;3.860;2023-12-29T13:43:29;10.50;99.90
21271;DHT22;10795;50.796;3.860;2023-12-29T13:45:56;10.60;99.90
21271;DHT22;10795;50.796;3.860;2023-12-29T13:48:22;10.60;99.90
21271;DHT22;10795;50.796;3.860;2023-12-29T13:50:53;10.60;99.90
21271;DHT22;10795;50.796;3.860;2023-12-29T13:53:20;10.60;99.90
21271;DHT22;10795;50.796;3.860;2023-12-29T13:55:46;10.60;99.90
21271;DHT22;10795;50.796;3.860;2023-12-29T13:58:15;10.60;99.90
21271;DHT22;10795;50.796;3.860;2023-12-29T14:00:46;10.60;99.90
21271;DHT22;10795;50.796;3.860;2023-12-29T14:03:31;10.60;99.90
21271;DHT22;10795;50.796;3.860;2023-12-29T14:06:04;10.60;99.90
21271;DHT22;10795;50.796;3.860;2023-12-29T14:08:38;10.70;99.90
21271;DHT22;10795;50.796;3.860;2023-12-29T14:11:10;10.70;99.90
21271;DHT22;10795;50.796;3.860;2023-12-29T14:13:46;10.60;99.90
21271;DHT22;10795;50.796;3.860;2023-12-29T14:16:13;10.60;99.90
21271;DHT22;10795;50.796;3.860;2023-12-29T14:24:17;10.70;99.90
21271;DHT22;10795;50.796;3.860;2023-12-29T14:26:55;10.70;99.90
21271;DHT22;10795;50.796;3.860;2023-12-29T14:29:24;10.80;99.90
21271;DHT22;10795;50.796;3.860;2023-12-29T14:31:51;10.80;99.90
21271;DHT22;10795;50.796;3.860;2023-12-29T14:34:17;10.90;99.90
21271;DHT22;10795;50.796;3.860;2023-12-29T14:36:44;10.80;99.90
21271;DHT22;10795;50.796;3.860;2023-12-29T14:39:13;10.90;99.90
21271;DHT22;10795;50.796;3.860;2023-12-29T14:41:41;10.80;99.90
21271;DHT22;10795;50.796;3.860;2023-12-29T14:44:07;10.80;99.90
21271;DHT22;10795;50.796;3.860;2023-12-29T14:46:35;10.80;99.90
21271;DHT22;10795;50.796;3.860;2023-12-29T14:49:02;10.70;99.90
21271;DHT22;10795;50.796;3.860;2023-12-29T14:51:28;10.70;99.90
21271;DHT22;10795;50.796;3.860;2023-12-29T14:53:54;10.70;99.90
21271;DHT22;10795;50.796;3.860;2023-12-29T14:56:19;10.80;99.90
21271;DHT22;10795;50.796;3.860;2023-12-29T14:58:45;10.70;99.90
21271;DHT22;10795;50.796;3.860;2023-12-29T15:01:12;10.70;99.90
21271;DHT22;10795;50.796;3.860;2023-12-29T15:03:38;10.70;99.90
21271;DHT22;10795;50.796;3.860;2023-12-29T15:06:04;10.70;99.90
21271;DHT22;10795;50.796;3.860;2023-12-29T15:08:30;10.80;99.90
21271;DHT22;10795;50.796;3.860;2023-12-29T15:11:04;10.80;99.90
21271;DHT22;10795;50.796;3.860;2023-12-29T15:13:30;10.80;99.90
21271;DHT22;10795;50.796;3.860;2023-12-29T15:15:59;10.80;99.90
21271;DHT22;10795;50.796;3.860;2023-12-29T15:18:26;10.80;99.90
21271;DHT22;10795;50.796;3.860;2023-12-29T15:20:52;10.70;99.90
21271;DHT22;10795;50.796;3.860;2023-12-29T15:23:17;10.70;99.90
21271;DHT22;10795;50.796;3.860;2023-12-29T15:25:43;10.70;99.90
21271;DHT22;10795;50.796;3.860;2023-12-29T15:28:09;10.60;99.90
21271;DHT22;10795;50.796;3.860;2023-12-29T15:30:37;10.60;99.90
21271;DHT22;10795;50.796;3.860;2023-12-29T15:33:04;10.70;99.90
21271;DHT22;10795;50.796;3.860;2023-12-29T15:35:30;10.70;99.90
21271;DHT22;10795;50.796;3.860;2023-12-29T15:37:55;10.70;99.90
21271;DHT22;10795;50.796;3.860;2023-12-29T15:40:22;10.80;99.90
21271;DHT22;10795;50.796;3.860;2023-12-29T15:42:48;10.80;99.90
21271;DHT22;10795;50.796;3.860;2023-12-29T15:45:15;10.80;99.90
21271;DHT22;10795;50.796;3.860;2023-12-29T15:47:44;10.80;99.90
21271;DHT22;10795;50.796;3.860;2023-12-29T15:50:10;10.80;99.90
21271;DHT22;10795;50.796;3.860;2023-12-29T15:52:39;10.80;99.90
21271;DHT22;10795;50.796;3.860;2023-12-29T15:58:10;10.80;99.90
21271;DHT22;10795;50.796;3.860;2023-12-29T16:00:36;10.80;99.90
21271;DHT22;10795;50.796;3.860;2023-12-29T16:03:02;10.70;99.90
21271;DHT22;10795;50.796;3.860;2023-12-29T16:05:29;10.70;99.90
21271;DHT22;10795;50.796;3.860;2023-12-29T16:07:55;10.70;99.90
21271;DHT22;10795;50.796;3.860;2023-12-29T16:10:21;10.70;99.90
21271;DHT22;10795;50.796;3.860;2023-12-29T16:12:50;10.70;99.90
21271;DHT22;10795;50.796;3.860;2023-12-29T16:15:15;10.70;99.90
21271;DHT22;10795;50.796;3.860;2023-12-29T16:17:41;10.70;99.90